createdAt,value
2023-05-09T00:00:07.057Z,31.45
2023-05-09T00:02:36.093Z,29.85
2023-05-09T00:05:05.058Z,30.98
2023-05-09T00:07:33.537Z,34.35
2023-05-09T00:10:02.410Z,34.17
2023-05-09T00:12:31.098Z,31.25
2023-05-09T00:14:59.697Z,35.42
2023-05-09T00:17:29.425Z,35.45
2023-05-09T00:19:57.731Z,32.08
2023-05-09T00:22:26.089Z,29.45
2023-05-09T00:24:55.540Z,31.05
2023-05-09T00:27:23.818Z,35.97
2023-05-09T00:29:52.115Z,31.70
2023-05-09T00:32:20.901Z,35.78
2023-05-09T00:34:51.293Z,31.92
2023-05-09T00:37:19.710Z,35.33
2023-05-09T00:39:49.490Z,31.13
2023-05-09T00:42:17.965Z,29.38
2023-05-09T00:44:46.628Z,28.38
2023-05-09T00:47:15.009Z,29.33
2023-05-09T00:49:43.411Z,25.88
2023-05-09T00:52:13.182Z,30.52
2023-05-09T00:54:41.684Z,25.88
2023-05-09T00:57:10.199Z,31.08
2023-05-09T00:59:38.644Z,27.27
2023-05-09T01:02:07.012Z,29.90
2023-05-09T01:04:36.050Z,33.90
2023-05-09T01:07:10.373Z,31.70
2023-05-09T01:09:48.916Z,26.00
2023-05-09T01:12:27.912Z,28.42
2023-05-09T01:15:06.893Z,26.60
2023-05-09T01:17:45.479Z,20.67
2023-05-09T01:20:22.005Z,27.85
2023-05-09T01:23:02.544Z,26.17
2023-05-09T01:25:53.311Z,23.27
2023-05-09T01:28:38.786Z,23.85
2023-05-09T01:31:10.799Z,25.35
2023-05-09T01:33:43.934Z,24.70
2023-05-09T01:36:18.148Z,20.90
2023-05-09T01:38:50.250Z,23.77
2023-05-09T01:41:20.895Z,21.80
2023-05-09T01:43:52.038Z,23.30
2023-05-09T01:46:24.137Z,25.05
2023-05-09T01:48:53.604Z,21.65
2023-05-09T01:51:22.793Z,24.95
2023-05-09T01:53:52.982Z,21.42
2023-05-09T01:56:23.794Z,19.58
2023-05-09T01:58:54.341Z,19.40
2023-05-09T02:01:26.365Z,25.55
2023-05-09T02:03:56.903Z,24.33
2023-05-09T02:06:26.598Z,24.20
2023-05-09T02:08:55.112Z,21.00
2023-05-09T02:11:23.681Z,25.92
2023-05-09T02:13:52.069Z,24.13
2023-05-09T02:16:21.191Z,22.75
2023-05-09T02:18:52.812Z,20.38
2023-05-09T02:21:21.610Z,26.80
2023-05-09T02:23:50.246Z,23.77
2023-05-09T02:26:19.153Z,26.67
2023-05-09T02:28:48.260Z,29.77
2023-05-09T02:31:20.682Z,25.25
2023-05-09T02:33:51.788Z,26.55
2023-05-09T02:36:21.074Z,23.77
2023-05-09T02:38:50.055Z,23.88
2023-05-09T02:41:18.875Z,23.38
2023-05-09T02:43:47.852Z,29.23
2023-05-09T02:46:16.977Z,23.20
2023-05-09T02:48:45.471Z,21.60
2023-05-09T02:51:15.122Z,24.02
2023-05-09T02:53:43.528Z,27.08
2023-05-09T02:56:11.972Z,24.23
2023-05-09T02:58:40.631Z,23.17
2023-05-09T03:01:09.025Z,20.45
2023-05-09T03:03:38.089Z,22.45
2023-05-09T03:06:09.766Z,27.10
2023-05-09T03:08:39.490Z,25.50
2023-05-09T03:11:07.902Z,26.20
2023-05-09T03:13:36.339Z,24.17
2023-05-09T03:16:05.412Z,26.33
2023-05-09T03:18:33.840Z,28.08
2023-05-09T03:21:02.308Z,28.45
2023-05-09T03:27:32.156Z,26.88
2023-05-09T03:30:00.691Z,30.27
2023-05-09T03:32:29.068Z,28.90
2023-05-09T03:34:57.365Z,28.75
2023-05-09T03:37:27.044Z,27.80
2023-05-09T03:39:55.848Z,33.92
2023-05-09T03:42:24.222Z,27.20
2023-05-09T03:44:55.023Z,34.30
2023-05-09T03:47:23.550Z,36.35
2023-05-09T03:49:53.619Z,28.05
2023-05-09T03:52:21.924Z,31.95
2023-05-09T03:54:50.374Z,28.17
2023-05-09T03:57:18.808Z,29.65
2023-05-09T03:59:47.223Z,31.77
2023-05-09T04:02:17.016Z,29.92
2023-05-09T04:04:46.864Z,32.05
2023-05-09T04:07:15.168Z,28.55
2023-05-09T04:09:43.725Z,33.72
2023-05-09T04:12:12.174Z,26.38
2023-05-09T04:14:40.876Z,23.85
2023-05-09T04:17:09.227Z,27.48
2023-05-09T04:19:39.053Z,28.92
2023-05-09T04:22:07.444Z,30.80
2023-05-09T04:24:35.940Z,31.63
2023-05-09T04:27:04.422Z,27.13
2023-05-09T04:29:32.802Z,31.90
2023-05-09T04:32:01.265Z,26.00
2023-05-09T04:34:29.965Z,27.52
2023-05-09T04:37:00.280Z,25.85
2023-05-09T04:39:28.716Z,29.65
2023-05-09T04:41:57.013Z,28.10
2023-05-09T04:44:25.448Z,27.58
2023-05-09T04:46:55.175Z,25.08
2023-05-09T04:49:23.553Z,26.35
2023-05-09T04:51:52.669Z,27.15
2023-05-09T04:54:22.562Z,24.92
2023-05-09T04:56:50.910Z,24.25
2023-05-09T04:59:19.216Z,25.27
2023-05-09T05:01:49.857Z,25.73
2023-05-09T05:04:18.341Z,27.48
2023-05-09T05:06:48.870Z,24.73
2023-05-09T05:09:17.173Z,27.02
2023-05-09T05:11:58.417Z,23.33
2023-05-09T05:14:29.409Z,26.25
2023-05-09T05:16:57.750Z,26.13
2023-05-09T05:19:26.139Z,28.45
2023-05-09T05:21:54.507Z,24.13
2023-05-09T05:24:22.860Z,25.83
2023-05-09T05:26:52.560Z,24.52
2023-05-09T05:29:20.956Z,23.27
2023-05-09T05:31:49.902Z,23.70
2023-05-09T05:34:18.356Z,22.33
2023-05-09T05:36:47.910Z,28.50
2023-05-09T05:39:16.291Z,25.33
2023-05-09T05:41:44.643Z,25.65
2023-05-09T05:44:14.393Z,26.02
2023-05-09T05:46:42.746Z,22.83
2023-05-09T05:49:11.055Z,20.25
2023-05-09T05:51:39.507Z,24.15
2023-05-09T05:54:07.839Z,24.45
2023-05-09T05:56:36.133Z,22.85
2023-05-09T05:59:04.452Z,24.10
2023-05-09T06:01:34.117Z,22.42
2023-05-09T06:04:02.810Z,23.90
2023-05-09T06:06:31.257Z,22.70
2023-05-09T06:08:59.500Z,23.80
2023-05-09T06:11:27.938Z,27.20
2023-05-09T06:13:56.354Z,25.75
2023-05-09T06:16:24.728Z,24.48
2023-05-09T06:18:55.964Z,26.80
2023-05-09T06:21:24.683Z,21.77
2023-05-09T06:26:24.273Z,25.00
2023-05-09T06:28:52.518Z,26.33
2023-05-09T06:31:21.320Z,22.92
2023-05-09T06:33:50.312Z,24.48
2023-05-09T06:36:20.047Z,23.60
2023-05-09T06:38:49.084Z,22.20
2023-05-09T06:41:17.404Z,24.75
2023-05-09T06:43:45.773Z,28.55
2023-05-09T06:46:14.222Z,25.13
2023-05-09T06:48:42.691Z,26.42
2023-05-09T06:51:11.619Z,23.13
2023-05-09T06:53:41.318Z,27.25
2023-05-09T06:56:09.878Z,21.85
2023-05-09T06:58:38.556Z,22.35
2023-05-09T07:01:07.250Z,21.27
2023-05-09T07:03:35.886Z,27.02
2023-05-09T07:06:04.325Z,24.73
2023-05-09T07:08:32.975Z,24.85
2023-05-09T07:11:02.948Z,26.58
2023-05-09T07:13:31.206Z,22.23
2023-05-09T07:15:59.793Z,26.83
2023-05-09T07:18:28.141Z,25.38
2023-05-09T07:20:56.452Z,23.88
2023-05-09T07:23:25.390Z,26.23
2023-05-09T07:25:58.794Z,24.55
2023-05-09T07:28:28.444Z,24.77
2023-05-09T07:30:57.290Z,24.42
2023-05-09T07:33:25.682Z,22.38
2023-05-09T07:35:54.193Z,22.92
2023-05-09T07:38:22.540Z,22.13
2023-05-09T07:40:50.881Z,25.42
2023-05-09T07:43:19.195Z,20.23
2023-05-09T07:45:49.300Z,20.73
2023-05-09T07:48:17.639Z,24.25
2023-05-09T07:50:46.016Z,21.80
2023-05-09T07:53:14.304Z,24.23
2023-05-09T07:55:42.781Z,20.08
2023-05-09T07:58:11.040Z,22.77
2023-05-09T08:00:39.398Z,22.55
2023-05-09T08:03:09.175Z,24.83
2023-05-09T08:05:37.585Z,19.20
2023-05-09T08:08:06.175Z,20.85
2023-05-09T08:10:34.488Z,19.58
2023-05-09T08:13:02.960Z,21.80
2023-05-09T08:15:31.299Z,19.33
2023-05-09T08:17:59.882Z,21.23
2023-05-09T08:20:31.347Z,15.68
2023-05-09T08:22:59.872Z,15.40
2023-05-09T08:25:28.733Z,16.40
2023-05-09T08:27:57.115Z,13.48
2023-05-09T08:30:25.466Z,13.32
2023-05-09T08:32:53.861Z,12.30
2023-05-09T08:35:22.270Z,15.00
2023-05-09T08:37:52.204Z,15.82
2023-05-09T08:40:20.709Z,15.10
2023-05-09T08:42:51.071Z,13.60
2023-05-09T08:45:28.199Z,12.40
2023-05-09T08:48:00.804Z,14.43
2023-05-09T08:50:29.510Z,15.13
2023-05-09T08:52:59.356Z,14.25
2023-05-09T08:55:28.295Z,13.32
2023-05-09T08:57:56.790Z,14.23
2023-05-09T09:00:26.643Z,12.38
2023-05-09T09:02:56.503Z,12.95
2023-05-09T09:05:39.902Z,14.50
2023-05-09T09:08:11.944Z,14.27
2023-05-09T09:10:43.501Z,13.68
2023-05-09T09:13:15.026Z,15.13
2023-05-09T09:15:46.932Z,15.38
2023-05-09T09:18:23.526Z,18.13
2023-05-09T09:21:07.439Z,18.48
2023-05-09T09:23:41.439Z,18.38
2023-05-09T09:26:10.041Z,17.13
2023-05-09T09:28:38.361Z,16.52
2023-05-09T09:31:21.797Z,17.50
2023-05-09T09:33:50.382Z,16.13
2023-05-09T09:36:28.472Z,17.55
2023-05-09T09:39:01.755Z,14.25
2023-05-09T09:41:34.102Z,15.38
2023-05-09T09:44:09.374Z,16.83
2023-05-09T09:46:45.004Z,14.60
2023-05-09T09:49:14.574Z,17.27
2023-05-09T09:51:43.893Z,19.17
2023-05-09T09:54:16.207Z,16.48
2023-05-09T09:56:46.907Z,18.88
2023-05-09T09:59:17.452Z,19.58
2023-05-09T10:02:01.264Z,17.58
2023-05-09T10:04:33.432Z,19.00
2023-05-09T10:07:05.098Z,18.08
2023-05-09T10:09:38.248Z,14.18
2023-05-09T10:12:09.481Z,19.15
2023-05-09T10:14:39.844Z,17.25
2023-05-09T10:17:08.502Z,15.98
2023-05-09T10:19:39.411Z,17.88
2023-05-09T10:22:11.997Z,17.95
2023-05-09T10:24:49.576Z,16.40
2023-05-09T10:27:23.956Z,15.80
2023-05-09T10:30:02.362Z,19.40
2023-05-09T10:32:40.694Z,17.33
2023-05-09T10:35:14.187Z,14.38
2023-05-09T10:37:44.234Z,17.10
2023-05-09T10:40:15.381Z,16.65
2023-05-09T10:42:44.685Z,19.48
2023-05-09T10:45:14.134Z,14.10
2023-05-09T10:47:45.470Z,15.88
2023-05-09T10:50:14.738Z,18.48
2023-05-09T10:53:11.579Z,14.05
2023-05-09T10:55:51.444Z,13.98
2023-05-09T10:58:32.086Z,13.50
2023-05-09T11:01:01.995Z,14.45
2023-05-09T11:03:54.623Z,15.25
2023-05-09T11:06:43.990Z,13.95
2023-05-09T11:09:28.482Z,14.00
2023-05-09T11:12:00.825Z,14.52
2023-05-09T11:14:33.509Z,15.10
2023-05-09T11:17:04.223Z,15.98
2023-05-09T11:19:58.700Z,14.25
2023-05-09T11:22:28.851Z,14.50
2023-05-09T11:25:05.768Z,13.45
2023-05-09T11:27:47.968Z,13.82
2023-05-09T11:30:18.664Z,17.60
2023-05-09T11:32:51.438Z,15.05
2023-05-09T11:35:21.684Z,16.27
2023-05-09T11:37:52.446Z,14.52
2023-05-09T11:40:22.518Z,16.20
2023-05-09T11:42:57.753Z,14.77
2023-05-09T11:45:28.748Z,15.93
2023-05-09T11:47:58.214Z,12.57
2023-05-09T11:50:26.873Z,11.63
2023-05-09T11:52:55.839Z,17.23
2023-05-09T11:55:25.611Z,14.70
2023-05-09T11:57:55.910Z,13.63
2023-05-09T12:00:26.864Z,13.38
2023-05-09T12:02:55.381Z,15.00
2023-05-09T12:05:24.610Z,14.30
2023-05-09T12:07:53.420Z,15.90
2023-05-09T12:10:23.905Z,14.85
2023-05-09T12:12:55.678Z,16.30
2023-05-09T12:15:24.872Z,14.93
2023-05-09T12:18:04.468Z,12.95
2023-05-09T12:20:47.097Z,14.95
2023-05-09T12:23:16.673Z,15.32
2023-05-09T12:25:54.948Z,14.52
2023-05-09T12:28:26.547Z,13.82
2023-05-09T12:30:56.239Z,14.38
2023-05-09T12:33:24.898Z,13.20
2023-05-09T12:36:05.891Z,14.73
2023-05-09T12:38:34.642Z,11.45
2023-05-09T12:41:04.278Z,12.68
2023-05-09T12:43:35.952Z,11.18
2023-05-09T12:46:05.522Z,10.68
2023-05-09T12:48:39.720Z,11.73
2023-05-09T12:51:09.125Z,10.95
2023-05-09T12:53:40.821Z,12.25
2023-05-09T12:56:15.619Z,11.98
2023-05-09T12:58:52.755Z,13.40
2023-05-09T13:01:22.144Z,14.40
2023-05-09T13:03:53.929Z,14.43
2023-05-09T13:06:24.206Z,14.77
2023-05-09T13:09:01.555Z,12.23
2023-05-09T13:11:31.565Z,12.77
2023-05-09T13:14:03.238Z,14.35
2023-05-09T13:16:31.643Z,13.02
2023-05-09T13:19:01.586Z,11.23
2023-05-09T13:21:29.937Z,11.95
2023-05-09T13:23:58.429Z,12.02
2023-05-09T13:26:27.353Z,13.35
2023-05-09T13:28:55.779Z,12.98
2023-05-09T13:31:25.705Z,11.05
2023-05-09T13:33:54.082Z,12.65
2023-05-09T13:36:22.384Z,11.73
2023-05-09T13:38:51.216Z,12.00
2023-05-09T13:41:22.546Z,12.98
2023-05-09T13:43:51.084Z,12.05
2023-05-09T13:46:19.460Z,13.02
2023-05-09T13:48:49.455Z,12.30
2023-05-09T13:51:17.808Z,13.30
2023-05-09T13:53:46.596Z,14.70
2023-05-09T13:56:48.961Z,19.88
2023-05-09T13:59:17.466Z,9.13
2023-05-09T14:01:46.016Z,7.55
2023-05-09T14:04:15.907Z,8.15
2023-05-09T14:06:48.347Z,6.53
2023-05-09T14:09:17.126Z,6.57
2023-05-09T14:11:45.666Z,9.25
2023-05-09T14:14:14.281Z,10.45
2023-05-09T14:16:42.935Z,6.57
2023-05-09T14:19:11.321Z,8.75
2023-05-09T14:21:41.394Z,9.77
2023-05-09T14:24:10.379Z,10.40
2023-05-09T14:26:39.029Z,8.20
2023-05-09T14:29:07.620Z,8.75
2023-05-09T14:31:36.075Z,8.93
2023-05-09T14:34:06.218Z,11.38
2023-05-09T14:36:34.833Z,10.88
2023-05-09T14:39:05.523Z,8.65
2023-05-09T14:41:34.105Z,8.82
2023-05-09T14:44:02.496Z,11.43
2023-05-09T14:46:31.035Z,11.48
2023-05-09T14:49:04.115Z,10.80
2023-05-09T14:51:33.388Z,10.95
2023-05-09T14:54:04.598Z,9.98
2023-05-09T14:56:33.319Z,10.27
2023-05-09T14:59:03.475Z,11.00
2023-05-09T15:01:31.884Z,11.00
2023-05-09T15:04:00.659Z,10.65
2023-05-09T15:06:30.441Z,11.75
2023-05-09T15:08:58.819Z,10.18
2023-05-09T15:11:28.762Z,10.10
2023-05-09T15:13:59.190Z,11.02
2023-05-09T15:16:27.703Z,12.88
2023-05-09T15:18:56.425Z,9.60
2023-05-09T15:21:24.705Z,8.65
2023-05-09T15:23:53.000Z,8.75
2023-05-09T15:26:21.284Z,6.22
2023-05-09T15:28:51.021Z,6.95
2023-05-09T15:31:21.667Z,6.18
2023-05-09T15:33:50.077Z,7.47
2023-05-09T15:36:18.445Z,7.32
2023-05-09T15:38:49.520Z,8.57
2023-05-09T15:41:18.583Z,6.80
2023-05-09T15:43:47.020Z,7.47
2023-05-09T15:46:17.009Z,6.65
2023-05-09T15:48:45.484Z,6.25
2023-05-09T15:51:13.926Z,6.38
2023-05-09T15:53:42.395Z,6.05
2023-05-09T15:56:10.753Z,6.15
2023-05-09T15:58:40.430Z,4.95
2023-05-09T16:01:13.040Z,7.05
2023-05-09T16:03:43.405Z,6.82
2023-05-09T16:06:17.556Z,5.35
2023-05-09T16:08:48.928Z,5.90
2023-05-09T16:11:18.731Z,7.70
2023-05-09T16:13:48.045Z,9.45
2023-05-09T16:16:16.781Z,6.30
2023-05-09T16:19:13.720Z,6.97
2023-05-09T16:21:52.829Z,6.30
2023-05-09T16:24:21.327Z,9.90
2023-05-09T16:26:49.887Z,5.95
2023-05-09T16:29:18.245Z,10.23
2023-05-09T16:31:46.737Z,5.72
2023-05-09T16:34:16.524Z,5.75
2023-05-09T16:36:46.814Z,7.20
2023-05-09T16:39:15.339Z,6.43
2023-05-09T16:41:43.915Z,7.93
2023-05-09T16:44:12.971Z,6.60
2023-05-09T16:46:41.325Z,6.05
2023-05-09T16:49:09.667Z,8.00
2023-05-09T16:51:39.437Z,8.38
2023-05-09T16:54:07.881Z,5.88
2023-05-09T16:56:36.510Z,6.10
2023-05-09T16:59:05.310Z,5.38
2023-05-09T17:01:33.695Z,6.10
2023-05-09T17:04:02.665Z,4.10
2023-05-09T17:06:31.074Z,4.88
2023-05-09T17:09:01.633Z,4.30
2023-05-09T17:11:30.418Z,6.43
2023-05-09T17:14:00.219Z,4.13
2023-05-09T17:16:28.728Z,4.40
2023-05-09T17:18:57.259Z,5.10
2023-05-09T17:21:26.034Z,5.82
2023-05-09T17:23:54.910Z,5.10
2023-05-09T17:26:25.925Z,5.32
2023-05-09T17:28:54.845Z,5.45
2023-05-09T17:31:23.360Z,5.32
2023-05-09T17:33:51.860Z,5.97
2023-05-09T17:36:20.277Z,6.85
2023-05-09T17:38:49.116Z,6.57
2023-05-09T17:41:17.523Z,5.95
2023-05-09T17:43:47.671Z,7.13
2023-05-09T17:46:16.206Z,9.88
2023-05-09T17:48:44.625Z,6.13
2023-05-09T17:51:14.246Z,6.15
2023-05-09T17:53:43.447Z,7.03
2023-05-09T17:56:11.886Z,6.75
2023-05-09T17:58:40.266Z,8.13
2023-05-09T18:01:10.260Z,6.22
2023-05-09T18:03:39.336Z,7.63
2023-05-09T18:06:07.929Z,7.28
2023-05-09T18:08:38.013Z,9.48
2023-05-09T18:11:06.919Z,9.40
2023-05-09T18:13:35.510Z,9.50
2023-05-09T18:16:04.156Z,11.23
2023-05-09T18:18:35.628Z,10.05
2023-05-09T18:21:05.038Z,13.32
2023-05-09T18:23:33.532Z,13.80
2023-05-09T18:26:04.527Z,12.65
2023-05-09T18:28:39.508Z,13.50
2023-05-09T18:31:11.871Z,13.07
2023-05-09T18:33:42.356Z,13.43
2023-05-09T18:36:11.424Z,13.50
2023-05-09T18:38:41.056Z,15.52
2023-05-09T18:41:11.334Z,13.43
2023-05-09T18:43:45.896Z,9.68
2023-05-09T18:46:17.479Z,11.82
2023-05-09T18:48:50.241Z,9.75
2023-05-09T18:51:19.254Z,8.82
2023-05-09T18:53:48.555Z,9.30
2023-05-09T18:56:20.954Z,9.65
2023-05-09T18:58:52.496Z,10.25
2023-05-09T19:01:21.635Z,10.70
2023-05-09T19:03:54.403Z,9.45
2023-05-09T19:06:24.100Z,9.48
2023-05-09T19:08:53.898Z,8.82
2023-05-09T19:11:22.442Z,10.20
2023-05-09T19:13:52.819Z,8.95
2023-05-09T19:16:22.793Z,7.32
2023-05-09T19:19:05.461Z,8.88
2023-05-09T19:21:35.675Z,8.93
2023-05-09T19:24:06.365Z,7.00
2023-05-09T19:26:34.900Z,8.70
2023-05-09T19:29:08.092Z,5.80
2023-05-09T19:31:37.720Z,7.13
2023-05-09T19:34:07.745Z,7.63
2023-05-09T19:36:36.225Z,9.23
2023-05-09T19:39:05.431Z,11.20
2023-05-09T19:41:34.090Z,9.35
2023-05-09T19:44:02.782Z,8.00
2023-05-09T19:46:31.246Z,9.50
2023-05-09T19:48:59.719Z,11.13
2023-05-09T19:51:29.589Z,11.55
2023-05-09T19:54:03.563Z,10.23
2023-05-09T19:56:32.653Z,9.52
2023-05-09T19:59:01.128Z,10.65
2023-05-09T20:01:29.756Z,9.98
2023-05-09T20:04:00.965Z,11.80
2023-05-09T20:06:30.894Z,10.98
2023-05-09T20:08:59.745Z,10.80
2023-05-09T20:11:28.654Z,15.35
2023-05-09T20:13:57.751Z,13.98
2023-05-09T20:16:31.564Z,16.10
2023-05-09T20:19:00.038Z,15.50
2023-05-09T20:21:28.426Z,17.00
2023-05-09T20:23:58.551Z,16.45
2023-05-09T20:26:28.211Z,18.17
2023-05-09T20:29:01.311Z,21.27
2023-05-09T20:31:29.994Z,21.27
2023-05-09T20:33:59.736Z,19.85
2023-05-09T20:36:28.970Z,22.02
2023-05-09T20:38:58.872Z,23.20
2023-05-09T20:41:27.334Z,25.50
2023-05-09T20:43:56.010Z,28.90
2023-05-09T20:46:24.350Z,38.00
2023-05-09T20:48:52.651Z,38.40
2023-05-09T20:51:21.034Z,40.30
2023-05-09T20:53:49.633Z,40.22
2023-05-09T20:56:19.815Z,47.45
2023-05-09T20:58:50.174Z,39.33
2023-05-09T21:01:19.030Z,48.42
2023-05-09T21:03:48.041Z,39.10
2023-05-09T21:06:16.512Z,44.15
2023-05-09T21:08:44.932Z,40.95
2023-05-09T21:11:13.425Z,42.35
2023-05-09T21:13:43.495Z,41.17
2023-05-09T21:16:11.876Z,45.17
2023-05-09T21:18:40.530Z,47.90
2023-05-09T21:21:09.143Z,47.05
2023-05-09T21:23:37.802Z,46.35
2023-05-09T21:26:06.878Z,49.22
2023-05-09T21:28:35.306Z,42.55
2023-05-09T21:31:05.385Z,49.20
2023-05-09T21:33:33.891Z,45.70
2023-05-09T21:36:02.319Z,46.60
2023-05-09T21:38:30.809Z,48.60
2023-05-09T21:40:59.394Z,50.75
2023-05-09T21:43:28.970Z,48.28
2023-05-09T21:45:57.683Z,47.42
2023-05-09T21:48:27.725Z,45.28
2023-05-09T21:50:56.565Z,40.75
2023-05-09T21:53:25.529Z,43.58
2023-05-09T21:55:54.401Z,44.33
2023-05-09T21:58:22.909Z,43.53
2023-05-09T22:00:51.450Z,44.28
2023-05-09T22:03:19.961Z,50.35
2023-05-09T22:05:50.183Z,49.55
2023-05-09T22:08:18.486Z,45.95
2023-05-09T22:10:47.074Z,42.78
2023-05-09T22:13:15.463Z,46.15
2023-05-09T22:15:44.207Z,55.63
2023-05-09T22:18:12.780Z,56.33
2023-05-09T22:20:41.116Z,47.58
2023-05-09T22:23:11.136Z,43.90
2023-05-09T22:25:39.702Z,47.40
2023-05-09T22:28:08.233Z,50.67
2023-05-09T22:30:37.101Z,55.15
2023-05-09T22:33:05.760Z,48.35
2023-05-09T22:35:34.229Z,47.72
2023-05-09T22:38:03.256Z,49.88
2023-05-09T22:40:33.081Z,49.20
2023-05-09T22:43:01.587Z,44.85
2023-05-09T22:45:30.063Z,46.28
2023-05-09T22:47:58.484Z,53.90
2023-05-09T22:50:26.934Z,50.58
2023-05-09T22:52:55.630Z,52.72
2023-05-09T22:55:24.999Z,50.88
2023-05-09T22:57:55.634Z,48.45
2023-05-09T23:00:24.058Z,53.35
2023-05-09T23:02:52.684Z,52.53
2023-05-09T23:05:21.297Z,51.03
2023-05-09T23:07:49.956Z,55.08
2023-05-09T23:10:18.599Z,57.33
2023-05-09T23:12:47.628Z,51.72
2023-05-09T23:15:17.714Z,62.30
2023-05-09T23:17:46.665Z,46.80
2023-05-09T23:20:15.446Z,53.58
2023-05-09T23:22:44.198Z,47.25
2023-05-09T23:25:12.925Z,48.60
2023-05-09T23:27:42.048Z,49.75
2023-05-09T23:30:11.713Z,50.15
2023-05-09T23:32:42.232Z,43.90
2023-05-09T23:35:11.686Z,51.25
2023-05-09T23:37:40.351Z,50.30
2023-05-09T23:40:13.023Z,46.22
2023-05-09T23:42:42.195Z,39.00
2023-05-09T23:45:12.733Z,40.08
2023-05-09T23:47:43.482Z,40.05
2023-05-09T23:50:13.409Z,44.28
2023-05-09T23:52:43.922Z,43.28
2023-05-09T23:55:13.114Z,38.75
2023-05-09T23:57:42.822Z,40.50
